createdAt,value
2022-10-02T00:02:38.421Z,3.30
2022-10-02T00:05:16.992Z,3.53
2022-10-02T00:08:06.466Z,3.08
2022-10-02T00:10:41.695Z,3.05
2022-10-02T00:13:15.299Z,3.50
2022-10-02T00:15:42.945Z,3.75
2022-10-02T00:18:17.713Z,3.38
2022-10-02T00:23:28.055Z,3.80
2022-10-02T00:26:06.689Z,2.33
2022-10-02T00:28:53.297Z,3.67
2022-10-02T00:31:45.783Z,3.00
2022-10-02T00:34:40.272Z,3.35
2022-10-02T00:37:20.922Z,3.58
2022-10-02T00:40:15.020Z,3.88
2022-10-02T00:43:04.501Z,3.78
2022-10-02T00:45:59.493Z,3.42
2022-10-02T00:48:47.231Z,3.45
2022-10-02T00:51:48.319Z,2.35
2022-10-02T00:54:44.916Z,4.22
2022-10-02T00:57:34.524Z,3.55
2022-10-02T01:00:20.367Z,4.32
2022-10-02T01:03:23.760Z,3.97
2022-10-02T01:05:50.705Z,3.75
2022-10-02T01:08:17.500Z,3.63
2022-10-02T01:10:45.224Z,3.20
2022-10-02T01:13:12.712Z,3.38
2022-10-02T01:15:48.444Z,3.22
2022-10-02T01:18:15.270Z,4.68
2022-10-02T01:20:48.632Z,3.95
2022-10-02T01:24:05.399Z,4.25
2022-10-02T01:26:32.116Z,2.80
2022-10-02T01:28:58.912Z,3.13
2022-10-02T01:31:25.714Z,3.58
2022-10-02T01:33:52.767Z,2.70
2022-10-02T01:36:20.408Z,3.60
2022-10-02T01:38:48.913Z,2.20
2022-10-02T01:41:15.501Z,3.42
2022-10-02T01:43:49.308Z,4.50
2022-10-02T01:46:32.000Z,3.05
2022-10-02T01:49:36.637Z,3.58
2022-10-02T01:52:10.303Z,3.03
2022-10-02T01:55:01.550Z,2.85
2022-10-02T01:57:53.031Z,3.83
2022-10-02T02:00:22.380Z,2.33
2022-10-02T02:03:13.314Z,2.50
2022-10-02T02:05:58.908Z,2.92
2022-10-02T02:09:05.285Z,2.70
2022-10-02T02:11:32.858Z,3.25
2022-10-02T02:14:14.591Z,3.00
2022-10-02T02:16:42.731Z,2.95
2022-10-02T02:19:29.939Z,2.58
2022-10-02T02:22:12.602Z,3.13
2022-10-02T02:25:10.115Z,2.85
2022-10-02T02:27:41.456Z,3.05
2022-10-02T02:30:12.000Z,2.22
2022-10-02T02:32:50.187Z,3.50
2022-10-02T02:35:24.468Z,2.65
2022-10-02T02:37:55.138Z,2.70
2022-10-02T02:40:28.565Z,3.55
2022-10-02T02:43:03.001Z,3.50
2022-10-02T02:45:35.256Z,3.38
2022-10-02T02:48:11.754Z,2.60
2022-10-02T02:50:43.385Z,3.33
2022-10-02T02:53:24.707Z,3.50
2022-10-02T02:56:05.827Z,2.97
2022-10-02T02:58:48.752Z,3.25
2022-10-02T03:01:15.464Z,3.22
2022-10-02T03:03:42.243Z,3.33
2022-10-02T03:06:20.810Z,3.25
2022-10-02T03:08:50.434Z,3.17
2022-10-02T03:11:46.788Z,3.20
2022-10-02T03:14:37.315Z,4.35
2022-10-02T03:17:19.829Z,3.08
2022-10-02T03:20:12.614Z,2.80
2022-10-02T03:22:45.394Z,3.08
2022-10-02T03:25:31.879Z,2.95
2022-10-02T03:28:04.050Z,3.47
2022-10-02T03:30:32.102Z,2.50
2022-10-02T03:33:01.008Z,3.25
2022-10-02T03:35:29.157Z,3.17
2022-10-02T03:38:00.932Z,2.78
2022-10-02T03:40:27.610Z,2.72
2022-10-02T03:42:58.293Z,4.15
2022-10-02T03:45:49.584Z,3.30
2022-10-02T03:48:13.069Z,3.17
2022-10-02T03:50:39.635Z,2.40
2022-10-02T03:53:21.288Z,3.45
2022-10-02T03:56:09.935Z,2.80
2022-10-02T03:58:41.174Z,2.47
2022-10-02T04:01:22.714Z,2.72
2022-10-02T04:03:57.522Z,3.17
2022-10-02T04:06:44.901Z,2.72
2022-10-02T04:09:19.468Z,2.72
2022-10-02T04:12:11.957Z,3.17
2022-10-02T04:14:45.162Z,2.75
2022-10-02T04:17:20.613Z,2.67
2022-10-02T04:20:28.736Z,3.33
2022-10-02T04:23:09.052Z,1.90
2022-10-02T04:25:41.505Z,2.90
2022-10-02T04:28:14.551Z,2.45
2022-10-02T04:30:41.695Z,2.08
2022-10-02T04:33:18.578Z,2.38
2022-10-02T04:35:59.692Z,2.50
2022-10-02T04:38:55.700Z,2.28
2022-10-02T04:41:28.217Z,2.38
2022-10-02T04:44:27.718Z,2.20
2022-10-02T04:46:59.505Z,2.20
2022-10-02T04:49:44.831Z,2.50
2022-10-02T04:52:11.376Z,2.08
2022-10-02T04:54:56.940Z,1.75
2022-10-02T04:58:08.850Z,1.98
2022-10-02T05:01:15.018Z,2.38
2022-10-02T05:04:03.756Z,2.22
2022-10-02T05:06:58.736Z,2.20
2022-10-02T05:09:46.341Z,1.17
2022-10-02T05:12:35.027Z,1.98
2022-10-02T05:15:23.445Z,1.60
2022-10-02T05:18:15.805Z,1.70
2022-10-02T05:21:05.928Z,1.85
2022-10-02T05:24:11.798Z,1.63
2022-10-02T05:29:23.778Z,1.70
2022-10-02T05:32:15.763Z,1.40
2022-10-02T05:35:06.053Z,1.60
2022-10-02T05:37:52.334Z,1.70
2022-10-02T05:40:33.662Z,1.98
2022-10-02T05:43:15.122Z,1.65
2022-10-02T05:45:52.252Z,2.22
2022-10-02T05:48:23.397Z,3.08
2022-10-02T05:50:54.991Z,2.47
2022-10-02T05:53:36.236Z,2.88
2022-10-02T05:56:23.683Z,2.80
2022-10-02T05:59:01.019Z,2.97
2022-10-02T06:01:33.944Z,3.08
2022-10-02T06:04:06.843Z,2.80
2022-10-02T06:06:41.129Z,2.88
2022-10-02T06:09:17.697Z,2.75
2022-10-02T06:12:09.072Z,2.38
2022-10-02T06:15:04.414Z,2.30
2022-10-02T06:17:37.943Z,2.28
2022-10-02T06:20:08.800Z,2.50
2022-10-02T06:22:50.861Z,2.50
2022-10-02T06:25:40.526Z,2.72
2022-10-02T06:28:17.269Z,3.15
2022-10-02T06:30:50.976Z,3.03
2022-10-02T06:33:23.015Z,3.50
2022-10-02T06:36:17.820Z,2.75
2022-10-02T06:39:15.317Z,2.88
2022-10-02T06:42:27.275Z,2.72
2022-10-02T06:44:59.176Z,2.50
2022-10-02T06:47:35.215Z,2.58
2022-10-02T06:50:32.625Z,3.13
2022-10-02T06:53:14.573Z,2.85
2022-10-02T06:56:19.235Z,3.25
2022-10-02T06:59:34.706Z,2.75
2022-10-02T07:02:32.836Z,3.93
2022-10-02T07:05:27.556Z,3.42
2022-10-02T07:08:22.213Z,2.37
2022-10-02T07:11:22.537Z,2.93
2022-10-02T07:14:01.744Z,2.40
2022-10-02T07:16:45.218Z,3.17
2022-10-02T07:19:44.951Z,2.95
2022-10-02T07:22:45.438Z,2.90
2022-10-02T07:25:40.168Z,2.75
2022-10-02T07:28:12.599Z,2.88
2022-10-02T07:30:56.282Z,2.58
2022-10-02T07:33:45.265Z,3.55
2022-10-02T07:36:25.626Z,2.83
2022-10-02T07:39:08.700Z,3.15
2022-10-02T07:41:54.281Z,2.58
2022-10-02T07:44:39.529Z,2.80
2022-10-02T07:47:37.255Z,2.78
2022-10-02T07:50:09.776Z,2.70
2022-10-02T07:52:57.900Z,2.58
2022-10-02T07:55:25.869Z,3.00
2022-10-02T07:58:16.887Z,3.13
2022-10-02T08:01:05.851Z,3.15
2022-10-02T08:03:39.029Z,3.33
2022-10-02T08:06:07.034Z,2.97
2022-10-02T08:08:42.310Z,2.70
2022-10-02T08:11:21.212Z,3.60
2022-10-02T08:14:00.889Z,3.05
2022-10-02T08:16:33.446Z,3.22
2022-10-02T08:19:08.804Z,3.15
2022-10-02T08:21:40.977Z,4.47
2022-10-02T08:24:52.167Z,2.78
2022-10-02T08:27:25.135Z,2.75
2022-10-02T08:30:00.118Z,3.15
2022-10-02T08:32:34.863Z,3.30
2022-10-02T08:35:05.605Z,3.15
2022-10-02T08:37:46.108Z,3.45
2022-10-02T08:40:24.969Z,3.15
2022-10-02T08:43:13.943Z,3.03
2022-10-02T08:46:02.604Z,3.33
2022-10-02T08:48:44.104Z,2.50
2022-10-02T08:51:39.199Z,2.80
2022-10-02T08:54:23.987Z,2.95
2022-10-02T08:57:00.325Z,2.63
2022-10-02T09:00:09.598Z,3.28
2022-10-02T09:02:45.233Z,3.40
2022-10-02T09:05:49.232Z,3.60
2022-10-02T09:08:41.455Z,3.15
2022-10-02T09:11:10.988Z,3.40
2022-10-02T09:14:15.012Z,2.20
2022-10-02T09:17:10.896Z,2.88
2022-10-02T09:19:48.847Z,2.85
2022-10-02T09:23:00.273Z,3.47
2022-10-02T09:25:45.576Z,2.80
2022-10-02T09:28:30.260Z,2.92
2022-10-02T09:31:26.290Z,2.15
2022-10-02T09:34:17.377Z,2.67
2022-10-02T09:37:08.587Z,3.38
2022-10-02T09:39:56.984Z,2.83
2022-10-02T09:42:54.552Z,3.17
2022-10-02T09:45:53.744Z,2.60
2022-10-02T09:48:53.391Z,2.80
2022-10-02T09:51:44.772Z,3.17
2022-10-02T09:54:32.208Z,3.10
2022-10-02T09:57:38.901Z,2.25
2022-10-02T10:00:34.401Z,2.33
2022-10-02T10:06:07.397Z,3.03
2022-10-02T10:08:58.304Z,3.13
2022-10-02T10:11:31.023Z,2.42
2022-10-02T10:14:25.428Z,2.97
2022-10-02T10:17:25.948Z,2.33
2022-10-02T10:20:17.440Z,2.25
2022-10-02T10:23:06.530Z,1.80
2022-10-02T10:25:57.284Z,2.60
2022-10-02T10:28:42.725Z,2.83
2022-10-02T10:31:36.648Z,2.75
2022-10-02T10:34:37.291Z,2.97
2022-10-02T10:37:48.091Z,3.03
2022-10-02T10:40:38.483Z,2.38
2022-10-02T10:43:27.373Z,2.35
2022-10-02T10:45:54.101Z,2.90
2022-10-02T10:49:10.478Z,2.97
2022-10-02T10:52:07.439Z,2.40
2022-10-02T10:55:00.548Z,2.97
2022-10-02T10:57:51.953Z,2.58
2022-10-02T11:00:26.872Z,1.92
2022-10-02T11:03:07.821Z,2.22
2022-10-02T11:05:53.319Z,3.15
2022-10-02T11:08:32.534Z,1.77
2022-10-02T11:11:18.050Z,2.47
2022-10-02T11:14:12.755Z,2.00
2022-10-02T11:17:14.206Z,2.47
2022-10-02T11:19:57.721Z,2.67
2022-10-02T11:22:37.755Z,2.40
2022-10-02T11:25:13.983Z,2.55
2022-10-02T11:28:28.421Z,3.30
2022-10-02T11:31:19.162Z,2.38
2022-10-02T11:33:57.859Z,2.38
2022-10-02T11:36:41.534Z,2.08
2022-10-02T11:39:42.970Z,2.10
2022-10-02T11:42:15.444Z,2.25
2022-10-02T11:44:51.668Z,2.03
2022-10-02T11:47:21.021Z,2.47
2022-10-02T11:50:02.178Z,2.40
2022-10-02T11:52:49.788Z,2.60
2022-10-02T11:55:47.192Z,2.70
2022-10-02T11:58:37.482Z,2.05
2022-10-02T12:01:13.286Z,3.28
2022-10-02T12:03:59.343Z,4.07
2022-10-02T12:07:05.687Z,2.58
2022-10-02T12:09:55.748Z,2.35
2022-10-02T12:12:51.944Z,3.08
2022-10-02T12:15:46.560Z,2.20
2022-10-02T12:18:36.434Z,2.03
2022-10-02T12:21:21.855Z,2.22
2022-10-02T12:24:54.879Z,2.53
2022-10-02T12:27:39.297Z,1.63
2022-10-02T12:30:13.946Z,2.67
2022-10-02T12:35:43.452Z,1.98
2022-10-02T12:38:37.677Z,2.30
2022-10-02T12:41:34.652Z,2.05
2022-10-02T12:44:25.238Z,1.77
2022-10-02T12:46:59.521Z,1.80
2022-10-02T12:49:45.672Z,2.03
2022-10-02T12:52:30.974Z,2.08
2022-10-02T12:54:57.529Z,1.77
2022-10-02T12:57:58.743Z,2.35
2022-10-02T13:01:22.824Z,2.10
2022-10-02T13:04:10.895Z,2.08
2022-10-02T13:06:55.659Z,1.88
2022-10-02T13:09:31.112Z,1.50
2022-10-02T13:12:32.338Z,2.22
2022-10-02T13:15:11.688Z,1.58
2022-10-02T13:17:46.157Z,1.63
2022-10-02T13:20:26.257Z,2.17
2022-10-02T13:23:22.495Z,1.92
2022-10-02T13:26:15.894Z,1.83
2022-10-02T13:29:09.821Z,2.03
2022-10-02T13:32:02.037Z,2.40
2022-10-02T13:34:38.348Z,1.67
2022-10-02T13:37:05.265Z,1.65
2022-10-02T13:40:02.816Z,1.77
2022-10-02T13:42:45.145Z,1.63
2022-10-02T13:45:27.231Z,2.47
2022-10-02T13:48:03.362Z,2.53
2022-10-02T13:50:46.165Z,1.70
2022-10-02T13:53:30.202Z,1.73
2022-10-02T13:56:28.040Z,1.38
2022-10-02T13:59:07.838Z,1.40
2022-10-02T14:02:19.045Z,1.50
2022-10-02T14:05:01.002Z,2.08
2022-10-02T14:08:01.400Z,1.35
2022-10-02T14:10:52.972Z,1.50
2022-10-02T14:13:42.144Z,1.58
2022-10-02T14:16:38.909Z,1.52
2022-10-02T14:19:29.198Z,1.38
2022-10-02T14:22:27.948Z,1.15
2022-10-02T14:25:20.575Z,1.52
2022-10-02T14:28:15.914Z,1.70
2022-10-02T14:33:28.408Z,1.55
2022-10-02T14:35:55.132Z,1.45
2022-10-02T14:38:42.147Z,1.40
2022-10-02T14:41:26.919Z,1.60
2022-10-02T14:44:18.518Z,1.73
2022-10-02T14:46:59.060Z,1.52
2022-10-02T14:49:49.866Z,1.65
2022-10-02T14:52:33.453Z,1.50
2022-10-02T14:55:25.997Z,1.40
2022-10-02T14:58:26.749Z,1.55
2022-10-02T15:01:22.388Z,2.80
2022-10-02T15:04:23.122Z,1.40
2022-10-02T15:06:59.065Z,1.80
2022-10-02T15:09:46.762Z,1.63
2022-10-02T15:12:19.324Z,1.98
2022-10-02T15:15:13.612Z,1.50
2022-10-02T15:17:56.874Z,1.80
2022-10-02T15:20:34.350Z,1.70
2022-10-02T15:23:09.415Z,2.05
2022-10-02T15:26:04.973Z,1.75
2022-10-02T15:28:57.601Z,2.90
2022-10-02T15:31:41.774Z,1.98
2022-10-02T15:34:11.420Z,2.10
2022-10-02T15:37:09.835Z,1.80
2022-10-02T15:39:45.538Z,1.60
2022-10-02T15:42:26.129Z,1.95
2022-10-02T15:45:17.366Z,1.63
2022-10-02T15:48:10.053Z,2.13
2022-10-02T15:50:57.626Z,2.17
2022-10-02T15:53:34.436Z,1.80
2022-10-02T15:56:22.911Z,2.22
2022-10-02T15:58:57.514Z,2.20
2022-10-02T16:01:55.189Z,2.42
2022-10-02T16:04:40.668Z,2.28
2022-10-02T16:07:36.303Z,2.28
2022-10-02T16:10:25.373Z,2.83
2022-10-02T16:13:35.895Z,2.20
2022-10-02T16:16:16.841Z,1.98
2022-10-02T16:18:46.939Z,1.77
2022-10-02T16:21:31.145Z,2.13
2022-10-02T16:24:16.593Z,2.43
2022-10-02T16:27:20.153Z,2.95
2022-10-02T16:30:11.128Z,3.80
2022-10-02T16:32:59.765Z,2.10
2022-10-02T16:35:44.492Z,2.35
2022-10-02T16:38:15.010Z,2.13
2022-10-02T16:40:56.791Z,2.30
2022-10-02T16:43:43.172Z,2.75
2022-10-02T16:46:25.898Z,2.10
2022-10-02T16:49:28.545Z,2.58
2022-10-02T16:52:23.124Z,2.30
2022-10-02T16:55:14.171Z,2.10
2022-10-02T16:57:45.416Z,2.85
2022-10-02T17:00:37.201Z,2.22
2022-10-02T17:03:21.546Z,1.98
2022-10-02T17:06:09.694Z,2.13
2022-10-02T17:08:43.281Z,1.90
2022-10-02T17:11:25.422Z,2.20
2022-10-02T17:14:34.238Z,2.22
2022-10-02T17:17:05.628Z,2.22
2022-10-02T17:19:45.711Z,3.03
2022-10-02T17:22:44.007Z,1.95
2022-10-02T17:25:27.368Z,2.20
2022-10-02T17:28:10.449Z,1.95
2022-10-02T17:31:09.401Z,2.30
2022-10-02T17:33:51.408Z,2.10
2022-10-02T17:36:32.987Z,2.10
2022-10-02T17:39:05.894Z,2.63
2022-10-02T17:42:00.319Z,2.03
2022-10-02T17:44:53.178Z,2.47
2022-10-02T17:47:37.506Z,2.55
2022-10-02T17:50:33.354Z,3.03
2022-10-02T17:53:40.748Z,3.15
2022-10-02T17:56:32.182Z,2.08
2022-10-02T17:59:10.895Z,2.65
2022-10-02T18:01:59.109Z,2.33
2022-10-02T18:04:45.926Z,2.08
2022-10-02T18:07:33.765Z,2.75
2022-10-02T18:10:17.987Z,2.20
2022-10-02T18:12:59.686Z,2.40
2022-10-02T18:15:34.275Z,1.75
2022-10-02T18:18:24.324Z,2.30
2022-10-02T18:21:16.518Z,1.80
2022-10-02T18:24:01.941Z,2.17
2022-10-02T18:26:57.852Z,1.70
2022-10-02T18:29:45.746Z,2.85
2022-10-02T18:32:27.475Z,2.88
2022-10-02T18:35:07.314Z,2.20
2022-10-02T18:38:01.703Z,2.92
2022-10-02T18:40:48.502Z,2.63
2022-10-02T18:43:39.938Z,2.47
2022-10-02T18:46:16.971Z,2.38
2022-10-02T18:48:51.597Z,2.30
2022-10-02T18:51:48.675Z,2.15
2022-10-02T18:54:30.428Z,2.58
2022-10-02T18:57:09.217Z,4.22
2022-10-02T18:59:55.269Z,5.22
2022-10-02T19:02:28.207Z,5.78
2022-10-02T19:05:21.717Z,4.07
2022-10-02T19:08:06.046Z,4.63
2022-10-02T19:10:32.823Z,3.37
2022-10-02T19:13:29.321Z,3.33
2022-10-02T19:15:59.310Z,3.30
2022-10-02T19:18:30.850Z,3.40
2022-10-02T19:21:05.451Z,3.53
2022-10-02T19:23:46.195Z,2.95
2022-10-02T19:26:24.452Z,3.70
2022-10-02T19:28:55.847Z,3.20
2022-10-02T19:31:27.425Z,3.22
2022-10-02T19:33:57.928Z,3.33
2022-10-02T19:36:26.961Z,3.40
2022-10-02T19:38:58.303Z,3.63
2022-10-02T19:41:26.176Z,3.83
2022-10-02T19:43:58.558Z,3.45
2022-10-02T19:46:33.927Z,2.78
2022-10-02T19:49:01.995Z,2.75
2022-10-02T19:51:28.960Z,2.95
2022-10-02T19:54:04.142Z,4.15
2022-10-02T19:56:40.941Z,3.63
2022-10-02T19:59:21.060Z,3.85
2022-10-02T20:01:57.676Z,3.00
2022-10-02T20:04:31.551Z,3.35
2022-10-02T20:07:00.609Z,3.53
2022-10-02T20:09:39.088Z,2.80
2022-10-02T20:12:17.386Z,3.40
2022-10-02T20:15:42.150Z,2.97
2022-10-02T20:18:10.503Z,2.65
2022-10-02T20:20:39.344Z,2.75
2022-10-02T20:23:17.489Z,3.28
2022-10-02T20:25:53.050Z,3.42
2022-10-02T20:28:28.596Z,2.80
2022-10-02T20:31:04.076Z,2.67
2022-10-02T20:33:43.665Z,3.30
2022-10-02T20:36:17.297Z,2.92
2022-10-02T20:38:51.501Z,3.28
2022-10-02T20:41:29.410Z,3.10
2022-10-02T20:44:06.097Z,2.83
2022-10-02T20:46:52.640Z,3.08
2022-10-02T20:49:58.229Z,2.97
2022-10-02T20:52:43.046Z,2.88
2022-10-02T20:55:30.181Z,3.13
2022-10-02T20:58:46.320Z,3.83
2022-10-02T21:01:19.845Z,3.05
2022-10-02T21:03:50.048Z,3.10
2022-10-02T21:06:50.782Z,3.63
2022-10-02T21:09:26.724Z,2.90
2022-10-02T21:12:23.829Z,2.85
2022-10-02T21:14:53.491Z,2.47
2022-10-02T21:17:38.588Z,2.78
2022-10-02T21:23:09.333Z,2.65
2022-10-02T21:25:44.832Z,3.05
2022-10-02T21:28:27.483Z,3.45
2022-10-02T21:30:57.505Z,3.20
2022-10-02T21:33:34.545Z,2.63
2022-10-02T21:36:22.421Z,2.22
2022-10-02T21:39:07.412Z,2.90
2022-10-02T21:42:04.268Z,2.30
2022-10-02T21:44:53.572Z,2.83
2022-10-02T21:47:45.256Z,2.35
2022-10-02T21:50:17.681Z,2.38
2022-10-02T21:53:09.860Z,2.38
2022-10-02T21:56:27.325Z,2.33
2022-10-02T21:59:22.746Z,2.13
2022-10-02T22:02:08.598Z,2.40
2022-10-02T22:04:36.181Z,2.33
2022-10-02T22:07:19.502Z,2.20
2022-10-02T22:09:51.616Z,2.50
2022-10-02T22:12:41.590Z,1.65
2022-10-02T22:15:45.998Z,2.10
2022-10-02T22:18:18.459Z,2.97
2022-10-02T22:20:55.829Z,2.20
2022-10-02T22:23:40.063Z,2.25
2022-10-02T22:26:37.268Z,1.80
2022-10-02T22:29:22.961Z,2.53
2022-10-02T22:32:20.402Z,2.25
2022-10-02T22:35:11.839Z,2.13
2022-10-02T22:37:47.688Z,2.10
2022-10-02T22:40:20.930Z,2.25
2022-10-02T22:42:54.523Z,2.30
2022-10-02T22:45:29.684Z,1.98
2022-10-02T22:48:23.083Z,2.05
2022-10-02T22:50:58.052Z,2.45
2022-10-02T22:53:33.152Z,2.15
2022-10-02T22:55:59.923Z,2.25
2022-10-02T22:58:39.849Z,2.78
2022-10-02T23:01:23.026Z,2.28
2022-10-02T23:03:55.140Z,2.60
2022-10-02T23:06:41.101Z,2.13
2022-10-02T23:09:24.761Z,2.28
2022-10-02T23:12:12.002Z,2.45
2022-10-02T23:14:48.332Z,2.42
2022-10-02T23:17:24.503Z,2.13
2022-10-02T23:20:22.789Z,2.33
2022-10-02T23:23:17.676Z,2.70
2022-10-02T23:26:03.903Z,2.60
2022-10-02T23:28:55.368Z,2.35
2022-10-02T23:31:32.091Z,2.08
2022-10-02T23:34:17.086Z,1.90
2022-10-02T23:36:58.101Z,2.03
2022-10-02T23:39:39.456Z,1.80
2022-10-02T23:42:10.674Z,2.10
2022-10-02T23:44:49.852Z,2.63
2022-10-02T23:47:37.605Z,2.13
2022-10-02T23:50:20.078Z,1.50
2022-10-02T23:52:56.016Z,1.95
2022-10-02T23:56:11.972Z,2.22
2022-10-02T23:58:56.904Z,2.05
